Aviation Digital Data Service (ADDS)

Output produced by METARs form (0754 UTC 30 October 2020)
found at http://www.aviationweather.gov/metar/data/
 
METAR text: KLAS 300656Z 20004KT 10SM CLR 16/M07 A3008 RMK AO2 SLP173 T01561072
Conditions at: KLAS (LAS VEGAS , NV, US) observed 0656 UTC 30 October 2020
Temperature: 15.6°C (60°F)
Dewpoint: -7.2°C (19°F) [RH = 20%]
Pressure (altimeter): 30.08 inches Hg (1018.7 mb)
[Sea-level pressure: 1017.3 mb]
Winds: from the SSW (200 degrees) at 5 MPH (4 knots; 2.1 m/s)
Visibility: 10 or more miles (16+ km)
Ceiling: at least 12,000 feet AGL
Clouds: sky clear below 12,000 feet AGL
Weather: no significant weather observed at this time

METAR text: KLAS 300556Z 21005KT 10SM CLR 16/M07 A3009 RMK AO2 SLP175 T01611067 10250 20161 53005
Conditions at: KLAS (LAS VEGAS , NV, US) observed 0556 UTC 30 October 2020
Temperature: 16.1°C (61°F)
Dewpoint: -6.7°C (20°F) [RH = 20%]
Pressure (altimeter): 30.09 inches Hg (1019.0 mb)
[Sea-level pressure: 1017.5 mb]
Winds: from the SSW (210 degrees) at 6 MPH (5 knots; 2.6 m/s)
Visibility: 10 or more miles (16+ km)
Ceiling: at least 12,000 feet AGL
Clouds: sky clear below 12,000 feet AGL
Weather: no significant weather observed at this time

METAR text: KLAS 300456Z 21003KT 10SM CLR 17/M07 A3008 RMK AO2 SLP173 T01721067
Conditions at: KLAS (LAS VEGAS , NV, US) observed 0456 UTC 30 October 2020
Temperature: 17.2°C (63°F)
Dewpoint: -6.7°C (20°F) [RH = 19%]
Pressure (altimeter): 30.08 inches Hg (1018.7 mb)
[Sea-level pressure: 1017.3 mb]
Winds: from the SSW (210 degrees) at 3 MPH (3 knots; 1.5 m/s)
Visibility: 10 or more miles (16+ km)
Ceiling: at least 12,000 feet AGL
Clouds: sky clear below 12,000 feet AGL
Weather: no significant weather observed at this time

METAR text: KLAS 300356Z 21005KT 10SM CLR 18/M07 A3007 RMK AO2 SLP171 T01831067
Conditions at: KLAS (LAS VEGAS , NV, US) observed 0356 UTC 30 October 2020
Temperature: 18.3°C (65°F)
Dewpoint: -6.7°C (20°F) [RH = 18%]
Pressure (altimeter): 30.07 inches Hg (1018.4 mb)
[Sea-level pressure: 1017.1 mb]
Winds: from the SSW (210 degrees) at 6 MPH (5 knots; 2.6 m/s)
Visibility: 10 or more miles (16+ km)
Ceiling: at least 12,000 feet AGL
Clouds: sky clear below 12,000 feet AGL
Weather: no significant weather observed at this time

METAR text: KLAS 300256Z 24003KT 10SM CLR 21/M05 A3007 RMK AO2 SLP172 T02061050 53005
Conditions at: KLAS (LAS VEGAS , NV, US) observed 0256 UTC 30 October 2020
Temperature: 20.6°C (69°F)
Dewpoint: -5.0°C (23°F) [RH = 17%]
Pressure (altimeter): 30.07 inches Hg (1018.4 mb)
[Sea-level pressure: 1017.2 mb]
Winds: from the WSW (240 degrees) at 3 MPH (3 knots; 1.5 m/s)
Visibility: 10 or more miles (16+ km)
Ceiling: at least 12,000 feet AGL
Clouds: sky clear below 12,000 feet AGL
Weather: no significant weather observed at this time

METAR text: KLAS 300156Z 24003KT 10SM CLR 23/M06 A3006 RMK AO2 SLP168 T02281061
Conditions at: KLAS (LAS VEGAS , NV, US) observed 0156 UTC 30 October 2020
Temperature: 22.8°C (73°F)
Dewpoint: -6.1°C (21°F) [RH = 14%]
Pressure (altimeter): 30.06 inches Hg (1018.0 mb)
[Sea-level pressure: 1016.8 mb]
Winds: from the WSW (240 degrees) at 3 MPH (3 knots; 1.5 m/s)
Visibility: 10 or more miles (16+ km)
Ceiling: at least 12,000 feet AGL
Clouds: sky clear below 12,000 feet AGL
Weather: no significant weather observed at this time

METAR text: KLAS 300056Z 00000KT 10SM CLR 24/M06 A3005 RMK AO2 SLP165 T02391061
Conditions at: KLAS (LAS VEGAS , NV, US) observed 0056 UTC 30 October 2020
Temperature: 23.9°C (75°F)
Dewpoint: -6.1°C (21°F) [RH = 13%]
Pressure (altimeter): 30.05 inches Hg (1017.7 mb)
[Sea-level pressure: 1016.5 mb]
Winds: calm
Visibility: 10 or more miles (16+ km)
Ceiling: at least 12,000 feet AGL
Clouds: sky clear below 12,000 feet AGL
Weather: no significant weather observed at this time

METAR text: KLAS 292356Z 00000KT 10SM CLR 25/M07 A3006 RMK AO2 SLP164 T02501072 10261 20217 56015
Conditions at: KLAS (LAS VEGAS , NV, US) observed 2356 UTC 29 October 2020
Temperature: 25.0°C (77°F)
Dewpoint: -7.2°C (19°F) [RH = 11%]
Pressure (altimeter): 30.06 inches Hg (1018.0 mb)
[Sea-level pressure: 1016.4 mb]
Winds: calm
Visibility: 10 or more miles (16+ km)
Ceiling: at least 12,000 feet AGL
Clouds: sky clear below 12,000 feet AGL
Weather: no significant weather observed at this time

METAR text: KLAS 292256Z 00000KT 10SM CLR 26/M07 A3006 RMK AO2 SLP166 T02561072
Conditions at: KLAS (LAS VEGAS , NV, US) observed 2256 UTC 29 October 2020
Temperature: 25.6°C (78°F)
Dewpoint: -7.2°C (19°F) [RH = 11%]
Pressure (altimeter): 30.06 inches Hg (1018.0 mb)
[Sea-level pressure: 1016.6 mb]
Winds: calm
Visibility: 10 or more miles (16+ km)
Ceiling: at least 12,000 feet AGL
Clouds: sky clear below 12,000 feet AGL
Weather: no significant weather observed at this time

METAR text: KLAS 292156Z 00000KT 10SM CLR 25/M07 A3008 RMK AO2 SLP171 T02501072
Conditions at: KLAS (LAS VEGAS , NV, US) observed 2156 UTC 29 October 2020
Temperature: 25.0°C (77°F)
Dewpoint: -7.2°C (19°F) [RH = 11%]
Pressure (altimeter): 30.08 inches Hg (1018.7 mb)
[Sea-level pressure: 1017.1 mb]
Winds: calm
Visibility: 10 or more miles (16+ km)
Ceiling: at least 12,000 feet AGL
Clouds: sky clear below 12,000 feet AGL
Weather: no significant weather observed at this time

METAR text: KLAS 292056Z VRB03KT 10SM CLR 25/M07 A3010 RMK AO2 SLP180 T02501072 58030
Conditions at: KLAS (LAS VEGAS , NV, US) observed 2056 UTC 29 October 2020
Temperature: 25.0°C (77°F)
Dewpoint: -7.2°C (19°F) [RH = 11%]
Pressure (altimeter): 30.10 inches Hg (1019.4 mb)
[Sea-level pressure: 1018.0 mb]
Winds: variable direction winds at 3 MPH (3 knots; 1.5 m/s)
Visibility: 10 or more miles (16+ km)
Ceiling: at least 12,000 feet AGL
Clouds: sky clear below 12,000 feet AGL
Weather: no significant weather observed at this time

METAR text: KLAS 291956Z 35005KT 10SM CLR 24/M07 A3014 RMK AO2 SLP193 T02391067
Conditions at: KLAS (LAS VEGAS , NV, US) observed 1956 UTC 29 October 2020
Temperature: 23.9°C (75°F)
Dewpoint: -6.7°C (20°F) [RH = 12%]
Pressure (altimeter): 30.14 inches Hg (1020.7 mb)
[Sea-level pressure: 1019.3 mb]
Winds: from the N (350 degrees) at 6 MPH (5 knots; 2.6 m/s)
Visibility: 10 or more miles (16+ km)
Ceiling: at least 12,000 feet AGL
Clouds: sky clear below 12,000 feet AGL
Weather: no significant weather observed at this time

METAR text: KLAS 291856Z 02007KT 10SM CLR 22/M07 A3018 RMK AO2 SLP205 T02221067
Conditions at: KLAS (LAS VEGAS , NV, US) observed 1856 UTC 29 October 2020
Temperature: 22.2°C (72°F)
Dewpoint: -6.7°C (20°F) [RH = 14%]
Pressure (altimeter): 30.18 inches Hg (1022.1 mb)
[Sea-level pressure: 1020.5 mb]
Winds: from the NNE (20 degrees) at 8 MPH (7 knots; 3.6 m/s)
Visibility: 10 or more miles (16+ km)
Ceiling: at least 12,000 feet AGL
Clouds: sky clear below 12,000 feet AGL
Weather: no significant weather observed at this time

METAR text: KLAS 291756Z 00000KT 10SM CLR 21/M07 A3020 RMK AO2 SLP213 T02111072 10211 20117 50005
Conditions at: KLAS (LAS VEGAS , NV, US) observed 1756 UTC 29 October 2020
Temperature: 21.1°C (70°F)
Dewpoint: -7.2°C (19°F) [RH = 14%]
Pressure (altimeter): 30.20 inches Hg (1022.8 mb)
[Sea-level pressure: 1021.3 mb]
Winds: calm
Visibility: 10 or more miles (16+ km)
Ceiling: at least 12,000 feet AGL
Clouds: sky clear below 12,000 feet AGL
Weather: no significant weather observed at this time

METAR text: KLAS 291737Z 00000KT 10SM CLR 21/M07 A3020 RMK AO2 T02061072
Conditions at: KLAS (LAS VEGAS , NV, US) observed 1737 UTC 29 October 2020
Temperature: 20.6°C (69°F)
Dewpoint: -7.2°C (19°F) [RH = 15%]
Pressure (altimeter): 30.20 inches Hg (1022.8 mb)
Winds: calm
Visibility: 10 or more miles (16+ km)
Ceiling: at least 12,000 feet AGL
Clouds: sky clear below 12,000 feet AGL
Weather: no significant weather observed at this time

METAR text: KLAS 291656Z 00000KT 10SM CLR 20/M07 A3020 RMK AO2 SLP216 T02001072
Conditions at: KLAS (LAS VEGAS , NV, US) observed 1656 UTC 29 October 2020
Temperature: 20.0°C (68°F)
Dewpoint: -7.2°C (19°F) [RH = 15%]
Pressure (altimeter): 30.20 inches Hg (1022.8 mb)
[Sea-level pressure: 1021.6 mb]
Winds: calm
Visibility: 10 or more miles (16+ km)
Ceiling: at least 12,000 feet AGL
Clouds: sky clear below 12,000 feet AGL
Weather: no significant weather observed at this time

METAR text: KLAS 291556Z 00000KT 10SM CLR 18/M07 A3021 RMK AO2 SLP217 T01781072
Conditions at: KLAS (LAS VEGAS , NV, US) observed 1556 UTC 29 October 2020
Temperature: 17.8°C (64°F)
Dewpoint: -7.2°C (19°F) [RH = 17%]
Pressure (altimeter): 30.21 inches Hg (1023.1 mb)
[Sea-level pressure: 1021.7 mb]
Winds: calm
Visibility: 10 or more miles (16+ km)
Ceiling: at least 12,000 feet AGL
Clouds: sky clear below 12,000 feet AGL
Weather: no significant weather observed at this time

METAR text: KLAS 291456Z 21003KT 10SM CLR 13/M08 A3018 RMK AO2 SLP210 T01331078 53018
Conditions at: KLAS (LAS VEGAS , NV, US) observed 1456 UTC 29 October 2020
Temperature: 13.3°C (56°F)
Dewpoint: -7.8°C (18°F) [RH = 22%]
Pressure (altimeter): 30.18 inches Hg (1022.1 mb)
[Sea-level pressure: 1021.0 mb]
Winds: from the SSW (210 degrees) at 3 MPH (3 knots; 1.5 m/s)
Visibility: 10 or more miles (16+ km)
Ceiling: at least 12,000 feet AGL
Clouds: sky clear below 12,000 feet AGL
Weather: no significant weather observed at this time

METAR text: KLAS 291356Z 22005KT 10SM CLR 12/M08 A3016 RMK AO2 SLP201 T01171078
Conditions at: KLAS (LAS VEGAS , NV, US) observed 1356 UTC 29 October 2020
Temperature: 11.7°C (53°F)
Dewpoint: -7.8°C (18°F) [RH = 25%]
Pressure (altimeter): 30.16 inches Hg (1021.4 mb)
[Sea-level pressure: 1020.1 mb]
Winds: from the SW (220 degrees) at 6 MPH (5 knots; 2.6 m/s)
Visibility: 10 or more miles (16+ km)
Ceiling: at least 12,000 feet AGL
Clouds: sky clear below 12,000 feet AGL
Weather: no significant weather observed at this time

METAR text: KLAS 291256Z 23005KT 10SM CLR 12/M07 A3014 RMK AO2 SLP197 T01171072
Conditions at: KLAS (LAS VEGAS , NV, US) observed 1256 UTC 29 October 2020
Temperature: 11.7°C (53°F)
Dewpoint: -7.2°C (19°F) [RH = 26%]
Pressure (altimeter): 30.14 inches Hg (1020.7 mb)
[Sea-level pressure: 1019.7 mb]
Winds: from the SW (230 degrees) at 6 MPH (5 knots; 2.6 m/s)
Visibility: 10 or more miles (16+ km)
Ceiling: at least 12,000 feet AGL
Clouds: sky clear below 12,000 feet AGL
Weather: no significant weather observed at this time

METAR text: KLAS 291156Z 22003KT 10SM CLR 12/M07 A3013 RMK AO2 SLP189 T01221072 10156 20117 53006
Conditions at: KLAS (LAS VEGAS , NV, US) observed 1156 UTC 29 October 2020
Temperature: 12.2°C (54°F)
Dewpoint: -7.2°C (19°F) [RH = 25%]
Pressure (altimeter): 30.13 inches Hg (1020.4 mb)
[Sea-level pressure: 1018.9 mb]
Winds: from the SW (220 degrees) at 3 MPH (3 knots; 1.5 m/s)
Visibility: 10 or more miles (16+ km)
Ceiling: at least 12,000 feet AGL
Clouds: sky clear below 12,000 feet AGL
Weather: no significant weather observed at this time

METAR text: KLAS 291056Z 22004KT 10SM CLR 12/M08 A3012 RMK AO2 SLP187 T01171078
Conditions at: KLAS (LAS VEGAS , NV, US) observed 1056 UTC 29 October 2020
Temperature: 11.7°C (53°F)
Dewpoint: -7.8°C (18°F) [RH = 25%]
Pressure (altimeter): 30.12 inches Hg (1020.1 mb)
[Sea-level pressure: 1018.7 mb]
Winds: from the SW (220 degrees) at 5 MPH (4 knots; 2.1 m/s)
Visibility: 10 or more miles (16+ km)
Ceiling: at least 12,000 feet AGL
Clouds: sky clear below 12,000 feet AGL
Weather: no significant weather observed at this time

METAR text: KLAS 290956Z 26003KT 10SM CLR 12/M06 A3011 RMK AO2 SLP184 T01221061
Conditions at: KLAS (LAS VEGAS , NV, US) observed 0956 UTC 29 October 2020
Temperature: 12.2°C (54°F)
Dewpoint: -6.1°C (21°F) [RH = 27%]
Pressure (altimeter): 30.11 inches Hg (1019.7 mb)
[Sea-level pressure: 1018.4 mb]
Winds: from the W (260 degrees) at 3 MPH (3 knots; 1.5 m/s)
Visibility: 10 or more miles (16+ km)
Ceiling: at least 12,000 feet AGL
Clouds: sky clear below 12,000 feet AGL
Weather: no significant weather observed at this time

METAR text: KLAS 290856Z 00000KT 10SM CLR 13/M06 A3011 RMK AO2 SLP184 T01331061 53007
Conditions at: KLAS (LAS VEGAS , NV, US) observed 0856 UTC 29 October 2020
Temperature: 13.3°C (56°F)
Dewpoint: -6.1°C (21°F) [RH = 25%]
Pressure (altimeter): 30.11 inches Hg (1019.7 mb)
[Sea-level pressure: 1018.4 mb]
Winds: calm
Visibility: 10 or more miles (16+ km)
Ceiling: at least 12,000 feet AGL
Clouds: sky clear below 12,000 feet AGL
Weather: no significant weather observed at this time

METAR text: KLAS 290756Z 22004KT 10SM CLR 14/M08 A3010 RMK AO2 SLP182 T01391083 402390094
Conditions at: KLAS (LAS VEGAS , NV, US) observed 0756 UTC 29 October 2020
Temperature: 13.9°C (57°F)
Dewpoint: -8.3°C (17°F) [RH = 21%]
Pressure (altimeter): 30.10 inches Hg (1019.4 mb)
[Sea-level pressure: 1018.2 mb]
Winds: from the SW (220 degrees) at 5 MPH (4 knots; 2.1 m/s)
Visibility: 10 or more miles (16+ km)
Ceiling: at least 12,000 feet AGL
Clouds: sky clear below 12,000 feet AGL
Weather: no significant weather observed at this time

METAR text: KLAS 290656Z 23004KT 10SM CLR 16/M08 A3009 RMK AO2 SLP179 T01561083
Conditions at: KLAS (LAS VEGAS , NV, US) observed 0656 UTC 29 October 2020
Temperature: 15.6°C (60°F)
Dewpoint: -8.3°C (17°F) [RH = 18%]
Pressure (altimeter): 30.09 inches Hg (1019.0 mb)
[Sea-level pressure: 1017.9 mb]
Winds: from the SW (230 degrees) at 5 MPH (4 knots; 2.1 m/s)
Visibility: 10 or more miles (16+ km)
Ceiling: at least 12,000 feet AGL
Clouds: sky clear below 12,000 feet AGL
Weather: no significant weather observed at this time

METAR text: KLAS 290556Z 21005KT 10SM CLR 15/M07 A3009 RMK AO2 SLP177 T01501067 10239 20150 51013
Conditions at: KLAS (LAS VEGAS , NV, US) observed 0556 UTC 29 October 2020
Temperature: 15.0°C (59°F)
Dewpoint: -6.7°C (20°F) [RH = 22%]
Pressure (altimeter): 30.09 inches Hg (1019.0 mb)
[Sea-level pressure: 1017.7 mb]
Winds: from the SSW (210 degrees) at 6 MPH (5 knots; 2.6 m/s)
Visibility: 10 or more miles (16+ km)
Ceiling: at least 12,000 feet AGL
Clouds: sky clear below 12,000 feet AGL
Weather: no significant weather observed at this time

METAR text: KLAS 290456Z 22003KT 10SM CLR 16/M07 A3008 RMK AO2 SLP176 T01611067
Conditions at: KLAS (LAS VEGAS , NV, US) observed 0456 UTC 29 October 2020
Temperature: 16.1°C (61°F)
Dewpoint: -6.7°C (20°F) [RH = 20%]
Pressure (altimeter): 30.08 inches Hg (1018.7 mb)
[Sea-level pressure: 1017.6 mb]
Winds: from the SW (220 degrees) at 3 MPH (3 knots; 1.5 m/s)
Visibility: 10 or more miles (16+ km)
Ceiling: at least 12,000 feet AGL
Clouds: sky clear below 12,000 feet AGL
Weather: no significant weather observed at this time

METAR text: KLAS 290356Z 23006KT 10SM CLR 17/M08 A3005 RMK AO2 SLP168 T01721078
Conditions at: KLAS (LAS VEGAS , NV, US) observed 0356 UTC 29 October 2020
Temperature: 17.2°C (63°F)
Dewpoint: -7.8°C (18°F) [RH = 17%]
Pressure (altimeter): 30.05 inches Hg (1017.7 mb)
[Sea-level pressure: 1016.8 mb]
Winds: from the SW (230 degrees) at 7 MPH (6 knots; 3.1 m/s)
Visibility: 10 or more miles (16+ km)
Ceiling: at least 12,000 feet AGL
Clouds: sky clear below 12,000 feet AGL
Weather: no significant weather observed at this time

METAR text: KLAS 290256Z 00000KT 10SM CLR 19/M07 A3005 RMK AO2 SLP166 T01941072 53009
Conditions at: KLAS (LAS VEGAS , NV, US) observed 0256 UTC 29 October 2020
Temperature: 19.4°C (67°F)
Dewpoint: -7.2°C (19°F) [RH = 16%]
Pressure (altimeter): 30.05 inches Hg (1017.7 mb)
[Sea-level pressure: 1016.6 mb]
Winds: calm
Visibility: 10 or more miles (16+ km)
Ceiling: at least 12,000 feet AGL
Clouds: sky clear below 12,000 feet AGL
Weather: no significant weather observed at this time

METAR text: KLAS 290156Z 22003KT 10SM CLR 21/M07 A3003 RMK AO2 SLP159 T02111067
Conditions at: KLAS (LAS VEGAS , NV, US) observed 0156 UTC 29 October 2020
Temperature: 21.1°C (70°F)
Dewpoint: -6.7°C (20°F) [RH = 15%]
Pressure (altimeter): 30.03 inches Hg (1017.0 mb)
[Sea-level pressure: 1015.9 mb]
Winds: from the SW (220 degrees) at 3 MPH (3 knots; 1.5 m/s)
Visibility: 10 or more miles (16+ km)
Ceiling: at least 12,000 feet AGL
Clouds: sky clear below 12,000 feet AGL
Weather: no significant weather observed at this time

METAR text: KLAS 290056Z 21003KT 10SM CLR 23/M07 A3002 RMK AO2 SLP153 T02281067
Conditions at: KLAS (LAS VEGAS , NV, US) observed 0056 UTC 29 October 2020
Temperature: 22.8°C (73°F)
Dewpoint: -6.7°C (20°F) [RH = 13%]
Pressure (altimeter): 30.02 inches Hg (1016.7 mb)
[Sea-level pressure: 1015.3 mb]
Winds: from the SSW (210 degrees) at 3 MPH (3 knots; 1.5 m/s)
Visibility: 10 or more miles (16+ km)
Ceiling: at least 12,000 feet AGL
Clouds: sky clear below 12,000 feet AGL
Weather: no significant weather observed at this time

METAR text: KLAS 282356Z 19003KT 10SM CLR 24/M07 A3002 RMK AO2 SLP154 T02391067 10239 20172 56012
Conditions at: KLAS (LAS VEGAS , NV, US) observed 2356 UTC 28 October 2020
Temperature: 23.9°C (75°F)
Dewpoint: -6.7°C (20°F) [RH = 12%]
Pressure (altimeter): 30.02 inches Hg (1016.7 mb)
[Sea-level pressure: 1015.4 mb]
Winds: from the S (190 degrees) at 3 MPH (3 knots; 1.5 m/s)
Visibility: 10 or more miles (16+ km)
Ceiling: at least 12,000 feet AGL
Clouds: sky clear below 12,000 feet AGL
Weather: no significant weather observed at this time

METAR text: KLAS 282256Z 14003KT 10SM CLR 23/M07 A3002 RMK AO2 SLP156 T02331067
Conditions at: KLAS (LAS VEGAS , NV, US) observed 2256 UTC 28 October 2020
Temperature: 23.3°C (74°F)
Dewpoint: -6.7°C (20°F) [RH = 13%]
Pressure (altimeter): 30.02 inches Hg (1016.7 mb)
[Sea-level pressure: 1015.6 mb]
Winds: from the SE (140 degrees) at 3 MPH (3 knots; 1.5 m/s)
Visibility: 10 or more miles (16+ km)
Ceiling: at least 12,000 feet AGL
Clouds: sky clear below 12,000 feet AGL
Weather: no significant weather observed at this time

METAR text: KLAS 282156Z 00000KT 10SM CLR 23/M07 A3003 RMK AO2 SLP159 T02281067
Conditions at: KLAS (LAS VEGAS , NV, US) observed 2156 UTC 28 October 2020
Temperature: 22.8°C (73°F)
Dewpoint: -6.7°C (20°F) [RH = 13%]
Pressure (altimeter): 30.03 inches Hg (1017.0 mb)
[Sea-level pressure: 1015.9 mb]
Winds: calm
Visibility: 10 or more miles (16+ km)
Ceiling: at least 12,000 feet AGL
Clouds: sky clear below 12,000 feet AGL
Weather: no significant weather observed at this time

METAR text: KLAS 282056Z 00000KT 10SM CLR 22/M07 A3006 RMK AO2 SLP167 T02221067 58029 $
Conditions at: KLAS (LAS VEGAS , NV, US) observed 2056 UTC 28 October 2020
Temperature: 22.2°C (72°F)
Dewpoint: -6.7°C (20°F) [RH = 14%]
Pressure (altimeter): 30.06 inches Hg (1018.0 mb)
[Sea-level pressure: 1016.7 mb]
Winds: calm
Visibility: 10 or more miles (16+ km)
Ceiling: at least 12,000 feet AGL
Clouds: sky clear below 12,000 feet AGL
Weather:
SOME DATA ABOVE MAY BE INACCURATE!!!
"$" is an indication the sensor requires maintenance

METAR text: KLAS 281956Z 00000KT 10SM CLR 21/M07 A3010 RMK AO2 SLP181 T02061067 $
Conditions at: KLAS (LAS VEGAS , NV, US) observed 1956 UTC 28 October 2020
Temperature: 20.6°C (69°F)
Dewpoint: -6.7°C (20°F) [RH = 15%]
Pressure (altimeter): 30.10 inches Hg (1019.4 mb)
[Sea-level pressure: 1018.1 mb]
Winds: calm
Visibility: 10 or more miles (16+ km)
Ceiling: at least 12,000 feet AGL
Clouds: sky clear below 12,000 feet AGL
Weather:
SOME DATA ABOVE MAY BE INACCURATE!!!
"$" is an indication the sensor requires maintenance

Forecast for: KLAS (LAS VEGAS , NV, US)
Text: KLAS 300520Z 3006/3112 21006KT P6SM SKC
Forecast period: 0600 to 1500 UTC 30 October 2020
Forecast type: FROM: standard forecast or significant change
Winds: from the SSW (210 degrees) at 7 MPH (6 knots; 3.1 m/s)
Visibility: 6 or more miles (10+ km)
Clouds: clear skies
Weather: no significant weather forecast for this period
Text: FM301500 VRB05KT P6SM SKC
Forecast period: 1500 UTC 30 October 2020 to 0200 UTC 31 October 2020
Forecast type: FROM: standard forecast or significant change
Winds: variable direction winds at 6 MPH (5 knots; 2.6 m/s)
Visibility: 6 or more miles (10+ km)
Clouds: clear skies
Weather: no significant weather forecast for this period
Text: FM310200 21006KT P6SM SKC
Forecast period: 0200 to 1200 UTC 31 October 2020
Forecast type: FROM: standard forecast or significant change
Winds: from the SSW (210 degrees) at 7 MPH (6 knots; 3.1 m/s)
Visibility: 6 or more miles (10+ km)
Clouds: clear skies
Weather: no significant weather forecast for this period